Time;durP1;ratioP1;P1;durP2;ratioP2;P2;SDS_P1;SDS_P2;PMS_P1;PMS_P2;Temp;Humidity;BMP_temperature;BMP_pressure;BME280_temperature;BME280_humidity;BME280_pressure;Samples;Min_cycle;Max_cycle;Signal;HPM_P1;HPM_P2
2022/05/01 00:00:29;;;;;;;5.00;1.80;;;;;;;12.54;44.10;101444.78;2098518;28;20476;-68
2022/05/01 00:01:35;;;;;;;5.10;1.98;;;;;;;12.55;43.93;101451.81;2089409;28;20061;-68
2022/05/01 00:02:39;;;;;;;4.78;1.85;;;;;;;12.54;44.37;101450.19;2089715;28;20060;-68
2022/05/01 00:03:50;;;;;;;3.63;2.10;;;;;;;12.54;44.07;101452.88;2091237;28;20045;-68
2022/05/01 00:04:55;;;;;;;6.38;2.05;;;;;;;12.55;44.36;101451.81;2105455;28;20075;-68
2022/05/01 00:06:10;;;;;;;;;;;;;;;12.56;44.03;101452.63;2097077;28;20534;-68
2022/05/01 00:07:18;;;;;;;4.35;2.08;;;;;;;12.56;44.02;101456.13;2107634;28;20535;-68
2022/05/01 00:08:23;;;;;;;4.80;2.03;;;;;;;12.56;43.68;101461.53;2114063;28;20040;-68
2022/05/01 00:09:25;;;;;;;4.00;2.10;;;;;;;12.56;44.26;101455.31;2105518;28;20063;-67
2022/05/01 00:10:27;;;;;;;3.88;2.00;;;;;;;12.55;43.99;101451.81;2113991;28;20038;-68
2022/05/01 00:11:31;;;;;;;4.38;1.90;;;;;;;12.58;43.91;101462.06;2112953;28;20305;-68
2022/05/01 00:12:36;;;;;;;5.72;1.80;;;;;;;12.54;44.18;101455.56;2105830;28;20052;-68
2022/05/01 00:13:40;;;;;;;5.60;1.88;;;;;;;12.54;44.32;101455.56;2113545;28;20056;-68
2022/05/01 00:14:45;;;;;;;8.48;1.80;;;;;;;12.56;44.66;101456.13;2113936;28;20439;-68
2022/05/01 00:15:48;;;;;;;5.88;2.10;;;;;;;12.58;44.22;101456.69;2114415;28;20407;-68
2022/05/01 00:16:53;;;;;;;6.47;2.00;;;;;;;12.57;44.30;101454.22;2105489;28;20294;-68
2022/05/01 00:18:00;;;;;;;3.75;1.80;;;;;;;12.49;44.43;101455.59;2098028;28;20044;-69
2022/05/01 00:19:02;;;;;;;4.82;1.88;;;;;;;12.44;44.31;101448.28;2089276;28;20061;-68
2022/05/01 00:20:07;;;;;;;4.82;2.03;;;;;;;12.33;44.31;101446.69;2097786;28;20047;-69
2022/05/01 00:21:11;;;;;;;4.63;2.00;;;;;;;12.32;44.59;101458.53;2095861;28;20048;-68
2022/05/01 00:22:19;;;;;;;4.22;1.75;;;;;;;12.34;44.31;101450.19;2073261;28;20304;-68
2022/05/01 00:23:24;;;;;;;5.70;2.05;;;;;;;12.33;44.59;101457.47;2090664;28;20045;-69
2022/05/01 00:24:32;;;;;;;3.00;1.80;;;;;;;12.36;44.49;101448.00;2107468;28;20298;-68
2022/05/01 00:25:42;;;;;;;4.25;2.10;;;;;;;12.36;44.53;101453.41;2113669;28;20051;-69
2022/05/01 00:26:45;;;;;;;4.68;2.15;;;;;;;12.36;44.61;101456.09;2106290;28;20063;-68
2022/05/01 00:27:49;;;;;;;6.15;2.10;;;;;;;12.35;44.64;101446.41;2105655;28;20074;-68
2022/05/01 00:28:50;;;;;;;3.80;2.20;;;;;;;12.37;44.67;101455.03;2080498;28;20045;-68
2022/05/01 00:29:57;;;;;;;6.97;2.60;;;;;;;12.37;44.35;101446.94;2078708;28;20410;-68
2022/05/01 00:31:06;;;;;;;5.82;2.58;;;;;;;12.38;44.29;101446.66;2105553;28;20134;-68
2022/05/01 00:32:09;;;;;;;6.93;3.30;;;;;;;12.35;44.56;101446.41;2105859;28;20052;-68
2022/05/01 00:37:22;;;;;;;6.97;2.80;;;;;;;12.23;44.38;101455.56;2105537;28;20587;-68
2022/05/01 00:38:27;;;;;;;8.40;2.67;;;;;;;12.24;44.45;101451.78;2108603;27;20634;-68
2022/05/01 00:39:29;;;;;;;5.82;2.40;;;;;;;12.15;44.67;101442.59;2113351;27;20290;-68
2022/05/01 00:40:33;;;;;;;8.23;2.40;;;;;;;12.17;44.94;101447.72;2121405;27;20430;-69
2022/05/01 00:41:43;;;;;;;5.55;2.20;;;;;;;12.17;45.04;101443.16;2113102;28;20051;-68
2022/05/01 00:42:45;;;;;;;6.90;2.35;;;;;;;12.19;44.61;101446.38;2098328;28;20055;-68
2022/05/01 00:44:06;;;;;;;9.85;2.63;;;;;;;12.20;44.57;101448.00;2097201;28;20044;-68
2022/05/01 00:45:10;;;;;;;7.75;2.30;;;;;;;12.21;44.72;101449.63;2107729;28;20444;-68
2022/05/01 00:46:14;;;;;;;6.50;2.30;;;;;;;12.21;44.62;101451.53;2096820;28;20060;-68
2022/05/01 00:47:22;;;;;;;6.50;2.47;;;;;;;12.21;44.89;101448.81;2098528;28;20211;-68
2022/05/01 00:48:27;;;;;;;7.63;2.40;;;;;;;12.23;44.88;101449.34;2111788;28;20044;-68
2022/05/01 00:49:31;;;;;;;7.13;2.58;;;;;;;12.23;44.63;101455.56;2096700;28;20048;-68
2022/05/01 00:50:34;;;;;;;9.57;3.00;;;;;;;12.16;44.62;101449.59;2097215;28;20048;-67
2022/05/01 00:51:47;;;;;;;6.55;2.40;;;;;;;12.14;45.01;101456.38;2104729;28;20312;-68
2022/05/01 00:52:50;;;;;;;7.13;2.53;;;;;;;12.13;45.08;101449.34;2117515;27;20023;-68
2022/05/01 00:53:55;;;;;;;6.30;2.40;;;;;;;12.14;44.78;101457.16;2122635;27;20394;-67
2022/05/01 00:55:03;;;;;;;10.13;2.80;;;;;;;12.10;45.00;101453.38;2113596;28;20470;-68
2022/05/01 00:56:13;;;;;;;7.18;2.55;;;;;;;12.09;44.98;101454.44;2107314;27;20456;-68
2022/05/01 00:57:17;;;;;;;8.18;3.10;;;;;;;12.10;44.59;101449.88;2114568;27;20035;-69
2022/05/01 00:58:19;;;;;;;6.25;2.70;;;;;;;12.09;44.72;101454.44;2121962;27;20066;-68
2022/05/01 00:59:21;;;;;;;10.02;3.40;;;;;;;12.12;44.96;101447.72;2111004;28;20082;-68
2022/05/01 01:00:24;;;;;;;7.32;2.53;;;;;;;12.12;44.92;101447.72;2104860;28;20356;-67
2022/05/01 01:01:27;;;;;;;14.18;2.78;;;;;;;12.10;45.15;101445.28;2112798;28;20517;-67
2022/05/01 01:02:32;;;;;;;10.30;3.08;;;;;;;12.09;45.15;101453.66;2113656;28;20050;-67
2022/05/01 01:03:35;;;;;;;7.13;2.80;;;;;;;12.04;44.95;101447.19;2114102;28;20051;-68
2022/05/01 01:04:39;;;;;;;6.53;2.60;;;;;;;12.04;44.95;101449.88;2104925;28;20047;-68
2022/05/01 01:05:41;;;;;;;5.97;2.45;;;;;;;12.06;44.97;101452.28;2097504;28;21194;-69
2022/05/01 01:06:49;;;;;;;6.82;2.67;;;;;;;12.07;45.31;101445.81;2105700;28;20040;-68
2022/05/01 01:07:54;;;;;;;8.20;2.58;;;;;;;12.10;45.38;101450.66;2097199;28;20530;-68
2022/05/01 01:08:59;;;;;;;8.45;2.63;;;;;;;12.13;45.50;101444.75;2097380;28;20783;-68
2022/05/01 01:10:05;;;;;;;5.32;2.20;;;;;;;12.15;45.52;101439.91;2104556;28;20056;-69
2022/05/01 01:11:10;;;;;;;7.65;2.42;;;;;;;12.14;45.04;101437.50;2105352;28;20443;-69
2022/05/01 01:13:48;;;;;;;6.90;2.65;;;;;;;12.10;45.16;101439.88;2102122;28;20945;-69
2022/05/01 01:14:56;;;;;;;7.03;2.60;;;;;;;12.02;45.12;101440.44;2096360;28;20044;-69
2022/05/01 01:15:59;;;;;;;5.90;2.38;;;;;;;12.02;45.34;101443.13;2107766;28;20499;-69
2022/05/01 01:17:05;;;;;;;4.32;2.10;;;;;;;12.05;45.78;101443.41;2104899;28;20050;-69
2022/05/01 01:18:15;;;;;;;6.05;2.10;;;;;;;12.06;45.46;101438.81;2106494;28;20051;-69
2022/05/01 01:19:20;;;;;;;7.78;2.88;;;;;;;12.08;45.75;101442.06;2113517;28;20055;-69
2022/05/01 01:20:28;;;;;;;5.35;2.17;;;;;;;12.09;45.29;101442.88;2104342;28;20313;-69
2022/05/01 01:21:32;;;;;;;3.88;2.38;;;;;;;12.09;45.65;101446.38;2097193;28;20044;-69
2022/05/01 01:22:39;;;;;;;6.13;2.30;;;;;;;12.14;45.64;101449.09;2097225;28;20511;-69
2022/05/01 01:23:47;;;;;;;4.80;2.22;;;;;;;12.15;45.64;101439.09;2106239;28;20769;-69
2022/05/01 01:24:50;;;;;;;6.95;2.10;;;;;;;12.11;45.67;101444.22;2112513;28;20047;-69
2022/05/01 01:25:53;;;;;;;5.82;2.30;;;;;;;12.12;45.50;101442.34;2112250;28;20046;-69
2022/05/01 01:26:57;;;;;;;7.07;2.30;;;;;;;12.12;45.70;101442.34;2104555;28;20056;-69
2022/05/01 01:28:05;;;;;;;4.20;2.35;;;;;;;12.13;45.44;101439.34;2090991;28;20048;-68
2022/05/01 01:31:59;;;;;;;6.22;2.88;;;;;;;12.17;45.65;101442.31;2104737;28;20306;-69
2022/05/01 01:33:02;;;;;;;5.13;2.33;;;;;;;12.19;45.64;101449.06;2104447;28;20294;-68
2022/05/01 01:34:09;;;;;;;4.03;2.20;;;;;;;12.18;45.43;101439.38;2096410;28;20290;-69
2022/05/01 01:35:13;;;;;;;5.55;2.20;;;;;;;12.14;45.16;101446.38;2104577;28;20051;-69
2022/05/01 01:36:16;;;;;;;6.03;1.98;;;;;;;12.12;45.46;101448.53;2105532;28;20032;-69
2022/05/01 01:37:24;;;;;;;8.02;2.08;;;;;;;12.13;45.81;101450.13;2108808;28;20281;-68
2022/05/01 01:38:26;;;;;;;3.92;2.40;;;;;;;12.13;45.83;101443.94;2112319;28;20054;-69
2022/05/01 01:39:31;;;;;;;5.93;2.28;;;;;;;12.16;45.67;101448.81;2113313;28;20043;-69
2022/05/01 01:40:50;;;;;;;4.15;2.00;;;;;;;12.17;45.75;101448.56;2112278;28;20055;-68
2022/05/01 01:42:00;;;;;;;4.82;2.13;;;;;;;12.19;45.27;101448.28;2111064;28;20035;-68
2022/05/01 01:43:08;;;;;;;5.35;2.03;;;;;;;12.20;45.41;101450.72;2112990;28;20273;-69
2022/05/01 01:44:15;;;;;;;5.30;2.25;;;;;;;12.21;45.44;101444.22;2112698;28;20051;-70
2022/05/01 01:45:22;;;;;;;6.18;2.13;;;;;;;12.22;45.27;101445.84;2105732;28;20032;-69
2022/05/01 01:46:26;;;;;;;4.70;2.25;;;;;;;12.22;45.49;101453.94;2105416;28;20032;-69
2022/05/01 01:47:28;;;;;;;4.35;2.25;;;;;;;12.24;45.52;101445.59;2105357;28;20304;-67
2022/05/01 01:48:33;;;;;;;4.75;2.00;;;;;;;12.24;45.29;101446.41;2111427;28;20047;-67
2022/05/01 01:49:39;;;;;;;4.93;2.33;;;;;;;12.24;45.55;101446.41;2096157;28;20286;-67
2022/05/01 01:50:42;;;;;;;5.35;2.40;;;;;;;12.24;45.23;101446.41;2087719;28;20049;-67
2022/05/01 01:51:45;;;;;;;4.65;2.10;;;;;;;12.20;45.35;101437.22;2105275;28;20059;-67
2022/05/01 01:52:57;;;;;;;6.10;2.42;;;;;;;12.21;45.32;101446.94;2122350;27;20289;-67
2022/05/01 01:54:06;;;;;;;5.93;2.30;;;;;;;12.17;45.09;101442.31;2113242;28;20078;-67
2022/05/01 01:55:08;;;;;;;7.28;2.28;;;;;;;12.10;45.50;101447.16;2113562;28;20281;-67
2022/05/01 01:56:14;;;;;;;5.07;2.22;;;;;;;12.08;45.59;101452.84;2098052;28;20283;-66
2022/05/01 01:57:16;;;;;;;5.57;2.28;;;;;;;12.08;45.78;101444.75;2096843;28;20658;-68
2022/05/01 01:58:18;;;;;;;3.63;2.30;;;;;;;12.10;45.41;101445.28;2088049;28;20299;-68
2022/05/01 01:59:23;;;;;;;6.55;2.78;;;;;;;12.12;45.82;101445.84;2088475;28;20677;-68
2022/05/01 02:00:28;;;;;;;3.65;2.35;;;;;;;12.13;45.41;101449.34;2104909;28;20405;-68
2022/05/01 02:01:33;;;;;;;5.97;2.17;;;;;;;12.14;45.88;101445.59;2111708;28;20296;-67
2022/05/01 02:02:37;;;;;;;6.22;2.50;;;;;;;12.15;45.82;101439.91;2113237;28;20786;-68
2022/05/01 02:03:44;;;;;;;5.30;2.33;;;;;;;12.17;45.98;101445.84;2104258;28;20290;-68
2022/05/01 02:04:46;;;;;;;3.97;2.25;;;;;;;12.19;45.53;101448.28;2104150;28;20765;-67
2022/05/01 02:05:51;;;;;;;5.28;2.33;;;;;;;12.18;45.48;101442.06;2112234;28;20285;-70
2022/05/01 02:06:53;;;;;;;3.92;2.03;;;;;;;12.19;45.52;101446.38;2113331;28;20054;-67
2022/05/01 02:07:57;;;;;;;6.30;2.58;;;;;;;12.19;45.42;101440.97;2113146;28;20773;-67
2022/05/01 02:09:06;;;;;;;3.25;2.00;;;;;;;12.19;45.63;101448.28;2080582;28;20296;-67
2022/05/01 02:10:10;;;;;;;5.03;2.22;;;;;;;12.19;45.69;101451.78;2090094;28;20041;-67
2022/05/01 02:11:12;;;;;;;5.93;2.30;;;;;;;12.19;45.77;101446.38;2104195;28;20052;-67
2022/05/01 02:12:16;;;;;;;4.97;2.53;;;;;;;12.20;45.84;101444.47;2080502;28;20402;-67
2022/05/01 02:13:21;;;;;;;3.13;2.15;;;;;;;12.19;45.85;101449.06;2089723;28;20040;-67
2022/05/01 02:14:23;;;;;;;3.80;2.20;;;;;;;12.17;45.90;101456.63;2095561;28;20146;-67
2022/05/01 02:15:32;;;;;;;4.57;2.40;;;;;;;12.18;46.08;101452.06;2096893;28;20051;-67
2022/05/01 02:16:35;;;;;;;5.38;2.42;;;;;;;12.18;45.75;101452.06;2111617;28;20048;-67
2022/05/01 02:17:48;;;;;;;5.30;2.53;;;;;;;12.17;45.70;101451.25;2087828;28;20057;-67
2022/05/01 02:18:50;;;;;;;5.90;2.42;;;;;;;12.15;45.96;101453.38;2083514;28;20631;-67
2022/05/01 02:19:53;;;;;;;3.65;2.10;;;;;;;12.13;46.19;101450.13;2087975;28;20060;-67
2022/05/01 02:22:21;;;;;;;5.32;2.50;;;;;;;12.13;45.93;101450.13;2107846;28;20027;-67
2022/05/01 02:23:26;;;;;;;3.83;2.10;;;;;;;12.14;45.99;101450.97;2113124;28;20288;-67
2022/05/01 02:24:31;;;;;;;4.85;2.45;;;;;;;12.11;46.14;101455.00;2104188;28;20774;-67
2022/05/01 02:25:32;;;;;;;4.65;2.35;;;;;;;12.05;46.39;101456.88;2080286;28;20295;-67
2022/05/01 02:26:42;;;;;;;4.50;2.10;;;;;;;12.05;46.44;101447.97;2089209;28;20075;-67
2022/05/01 02:27:45;;;;;;;4.03;2.42;;;;;;;12.05;46.52;101453.38;2111719;28;20265;-67
2022/05/01 02:28:50;;;;;;;4.40;2.10;;;;;;;12.04;46.37;101447.19;2105150;28;20067;-67
2022/05/01 02:29:53;;;;;;;7.90;2.38;;;;;;;12.04;46.25;101447.19;2104161;28;20294;-67
2022/05/01 02:31:02;;;;;;;5.03;2.03;;;;;;;12.04;46.51;101449.03;2104597;28;20275;-67
2022/05/01 02:32:05;;;;;;;5.38;2.30;;;;;;;12.01;46.63;101452.25;2089075;28;20625;-67
2022/05/01 02:33:13;;;;;;;5.85;2.40;;;;;;;12.02;46.86;101454.72;2096976;28;20687;-67
2022/05/01 02:34:17;;;;;;;3.92;2.25;;;;;;;12.05;46.73;101447.97;2104619;28;20754;-67
2022/05/01 02:35:21;;;;;;;3.80;2.00;;;;;;;12.07;46.26;101440.41;2079848;28;20046;-67
2022/05/01 02:36:27;;;;;;;5.47;2.30;;;;;;;12.11;46.77;101452.31;2081694;28;20129;-67
2022/05/01 02:37:32;;;;;;;6.03;2.50;;;;;;;12.09;46.61;101443.66;2096224;28;20639;-66
2022/05/01 02:38:36;;;;;;;6.40;2.05;;;;;;;12.09;46.24;101446.38;2084821;28;20060;-67
2022/05/01 02:39:43;;;;;;;5.03;2.10;;;;;;;12.11;46.60;101444.22;2074148;28;20061;-67
2022/05/01 02:40:46;;;;;;;5.45;2.30;;;;;;;12.11;46.20;101446.13;2087756;28;20322;-67
2022/05/01 02:41:53;;;;;;;4.82;2.60;;;;;;;12.11;46.28;101446.91;2087449;28;20068;-67
2022/05/01 02:43:05;;;;;;;5.53;2.65;;;;;;;12.12;46.61;101448.53;2088398;28;20303;-67
2022/05/01 02:44:07;;;;;;;3.45;2.30;;;;;;;12.12;46.28;101448.53;2087897;28;20829;-67
2022/05/01 02:45:10;;;;;;;4.93;2.28;;;;;;;12.12;46.38;101453.13;2072164;28;20417;-67
2022/05/01 02:46:15;;;;;;;4.78;2.17;;;;;;;12.08;46.84;101443.94;2080323;28;20370;-68
2022/05/01 02:47:17;;;;;;;5.90;2.60;;;;;;;12.06;46.91;101444.19;2089323;28;20044;-68
2022/05/01 02:48:23;;;;;;;5.47;2.63;;;;;;;12.08;46.86;101449.34;2087900;28;20291;-68
2022/05/01 02:49:28;;;;;;;8.35;2.75;;;;;;;12.10;46.68;101445.28;2064453;28;20054;-68
2022/05/01 02:50:36;;;;;;;5.60;2.30;;;;;;;12.10;46.82;101442.59;2082752;28;20034;-68
2022/05/01 02:51:43;;;;;;;5.00;2.40;;;;;;;12.10;46.54;101449.88;2089102;28;20511;-76
2022/05/01 02:53:04;;;;;;;8.25;2.90;;;;;;;12.10;46.75;101444.47;2086085;28;20776;-73
2022/05/01 02:54:05;;;;;;;5.55;2.35;;;;;;;12.05;47.08;101442.59;2098042;28;20051;-79
2022/05/01 02:55:11;;;;;;;7.75;2.50;;;;;;;12.06;46.84;101439.63;2097567;28;20279;-78
2022/05/01 02:56:14;;;;;;;5.50;2.53;;;;;;;12.10;46.73;101444.47;2089906;28;20040;-79
2022/05/01 02:57:17;;;;;;;6.88;2.50;;;;;;;12.12;46.84;101442.34;2097726;28;20293;-79
2022/05/01 02:58:22;;;;;;;3.75;2.33;;;;;;;12.12;46.79;101443.13;2089018;28;20059;-79
2022/05/01 02:59:26;;;;;;;4.20;2.20;;;;;;;12.13;46.87;101446.63;2081663;28;20509;-78
2022/05/01 03:00:30;;;;;;;5.40;2.58;;;;;;;12.13;46.83;101439.34;2089615;28;20425;-80
2022/05/01 03:01:32;;;;;;;6.95;2.65;;;;;;;12.14;46.99;101434.81;2090698;28;20053;-79
2022/05/01 03:02:37;;;;;;;5.03;2.78;;;;;;;12.15;47.23;101439.09;2081218;28;20057;-79
2022/05/01 03:03:41;;;;;;;7.90;2.80;;;;;;;12.14;46.76;101443.69;2073960;28;20061;-81
2022/05/01 03:04:46;;;;;;;4.80;2.50;;;;;;;12.08;46.60;101449.34;2075853;28;20792;-82
2022/05/01 03:05:54;;;;;;;5.05;2.50;;;;;;;12.06;46.39;101444.19;2096354;28;20131;-80
2022/05/01 03:06:56;;;;;;;6.90;2.60;;;;;;;12.05;47.21;101445.28;2095088;28;20388;-80
2022/05/01 03:08:01;;;;;;;5.45;2.60;;;;;;;12.04;46.54;101447.19;2081153;28;20303;-81
2022/05/01 03:09:08;;;;;;;6.10;3.05;;;;;;;12.06;46.54;101446.91;2067726;28;20058;-79
2022/05/01 03:10:12;;;;;;;6.00;2.65;;;;;;;12.07;46.71;101440.41;2090758;28;20053;-79
2022/05/01 03:11:15;;;;;;;5.05;2.95;;;;;;;12.08;46.73;101447.44;2097641;28;20048;-80
2022/05/01 03:12:24;;;;;;;6.25;2.45;;;;;;;12.07;46.46;101440.41;2081761;28;20292;-80
2022/05/01 03:13:31;;;;;;;9.52;2.83;;;;;;;12.03;46.53;101440.16;2083624;28;20311;-81
2022/05/01 03:14:37;;;;;;;5.45;2.65;;;;;;;12.02;46.67;101437.72;2073742;28;20061;-79
2022/05/01 03:15:43;;;;;;;5.63;2.60;;;;;;;12.04;46.67;101436.41;2067054;28;20794;-79
2022/05/01 03:16:55;;;;;;;5.82;2.65;;;;;;;12.06;46.99;101436.13;2082160;28;20029;-79
2022/05/01 03:22:15;;;;;;;8.48;2.70;;;;;;;12.12;47.13;101432.34;2089271;28;20489;-78
2022/05/01 03:23:19;;;;;;;4.63;2.42;;;;;;;12.12;47.06;101440.44;2078220;28;20284;-81
2022/05/01 03:24:22;;;;;;;6.80;2.80;;;;;;;12.12;47.06;101437.75;2083730;28;20609;-80
2022/05/01 03:25:29;;;;;;;8.57;2.63;;;;;;;12.13;46.84;101433.97;2090197;28;20309;-79
2022/05/01 03:26:36;;;;;;;6.03;2.85;;;;;;;12.12;46.94;101432.34;2089058;28;20222;-79
2022/05/01 03:27:45;;;;;;;5.90;2.83;;;;;;;12.13;46.66;101438.56;2082848;28;20513;-79
2022/05/01 03:28:48;;;;;;;7.75;2.80;;;;;;;12.10;46.99;101437.19;2089094;28;20640;-79
2022/05/01 03:31:17;;;;;;;5.50;2.65;;;;;;;12.05;46.63;101432.63;2092321;28;20056;-77
2022/05/01 03:32:22;;;;;;;5.97;2.90;;;;;;;12.05;46.77;101431.81;2093131;28;20484;-77
2022/05/01 03:33:27;;;;;;;6.70;3.00;;;;;;;12.04;46.40;101435.56;2082032;28;20037;-77
2022/05/01 03:34:31;;;;;;;9.00;3.00;;;;;;;11.99;46.81;101428.28;2072990;28;20053;-77
2022/05/01 03:35:35;;;;;;;6.15;2.72;;;;;;;11.99;46.74;101439.06;2074184;28;20299;-88
2022/05/01 03:36:42;;;;;;;6.15;2.50;;;;;;;12.03;46.66;101439.34;2090636;28;20041;-83
2022/05/01 03:37:46;;;;;;;10.52;3.17;;;;;;;12.01;46.78;101438.78;2089397;28;20053;-86
2022/05/01 03:38:49;;;;;;;6.65;3.00;;;;;;;11.94;46.68;101441.75;2088032;28;20432;-85
2022/05/01 03:39:54;;;;;;;7.07;3.00;;;;;;;11.88;47.07;101432.03;2091149;28;20059;-82
2022/05/01 03:40:58;;;;;;;4.78;3.00;;;;;;;11.89;46.97;101430.16;2108130;28;20937;-86
2022/05/01 03:42:04;;;;;;;7.60;2.88;;;;;;;11.88;47.13;101440.09;2106467;28;20298;-84
2022/05/01 03:43:08;;;;;;;7.13;3.08;;;;;;;11.92;47.28;101432.31;2105932;28;20062;-83
2022/05/01 03:44:17;;;;;;;5.38;3.00;;;;;;;11.96;47.32;101433.41;2114512;28;20039;-82
2022/05/01 03:45:22;;;;;;;4.32;2.50;;;;;;;11.99;47.38;101435.56;2104301;28;20083;-84
2022/05/01 03:46:30;;;;;;;6.38;2.90;;;;;;;12.01;47.19;101430.69;2098974;28;20283;-76
2022/05/01 03:47:34;;;;;;;5.60;2.80;;;;;;;12.04;47.63;101432.88;2097329;28;20579;-68
2022/05/01 03:48:39;;;;;;;5.43;2.80;;;;;;;12.06;47.63;101436.91;2088863;28;20060;-68
2022/05/01 03:49:43;;;;;;;5.43;3.10;;;;;;;12.09;47.66;101443.66;2091017;28;20378;-68
2022/05/01 03:50:52;;;;;;;6.35;3.20;;;;;;;12.12;47.43;101439.63;2098284;28;20464;-68
2022/05/01 03:51:59;;;;;;;5.07;3.17;;;;;;;12.12;47.36;101432.34;2113488;28;20047;-68
2022/05/01 03:53:04;;;;;;;6.82;3.70;;;;;;;12.11;47.38;101436.13;2114268;28;20048;-68
2022/05/01 03:54:13;;;;;;;6.90;3.40;;;;;;;12.13;47.37;101433.97;2097289;28;20107;-68
2022/05/01 03:55:17;;;;;;;9.13;3.17;;;;;;;12.10;47.06;101434.50;2077032;28;20041;-68
2022/05/01 03:56:20;;;;;;;6.93;3.80;;;;;;;12.09;47.07;101432.88;2090162;28;20051;-68
2022/05/01 03:57:22;;;;;;;7.30;3.13;;;;;;;12.08;47.08;101436.66;2097676;28;20688;-68
2022/05/01 03:58:25;;;;;;;5.82;3.10;;;;;;;12.04;47.10;101436.41;2097643;28;20037;-68
2022/05/01 03:59:27;;;;;;;8.82;3.47;;;;;;;12.01;47.46;101430.69;2077432;28;20048;-68
2022/05/01 04:00:31;;;;;;;6.80;3.25;;;;;;;12.01;47.62;101422.63;2081166;28;20121;-68
2022/05/01 04:01:35;;;;;;;9.68;3.47;;;;;;;11.99;47.60;101422.91;2104660;28;20060;-68
2022/05/01 04:02:44;;;;;;;6.40;3.15;;;;;;;12.02;47.83;101426.97;2105223;28;20051;-68
2022/05/01 04:03:49;;;;;;;6.28;3.33;;;;;;;12.04;47.35;101425.63;2105634;28;20277;-68
2022/05/01 04:04:56;;;;;;;6.25;3.50;;;;;;;12.05;47.17;101426.41;2106208;28;20666;-68
2022/05/01 04:06:03;;;;;;;7.18;3.47;;;;;;;12.08;47.51;101425.88;2096842;28;20290;-67
2022/05/01 04:07:05;;;;;;;8.13;4.00;;;;;;;12.10;47.50;101429.09;2097175;28;20063;-67
2022/05/01 04:08:10;;;;;;;7.43;4.13;;;;;;;12.09;47.76;101432.88;2097521;28;20519;-67
2022/05/01 04:09:14;;;;;;;8.57;3.72;;;;;;;12.08;47.42;101425.88;2098308;28;20044;-67
2022/05/01 04:10:16;;;;;;;9.55;4.63;;;;;;;12.09;47.36;101430.19;2088699;28;20520;-67
2022/05/01 04:11:23;;;;;;;8.02;4.32;;;;;;;12.08;47.30;101427.78;2098371;28;20401;-67
2022/05/01 04:12:27;;;;;;;7.30;4.30;;;;;;;12.08;47.60;101425.09;2114050;28;20043;-67
2022/05/01 04:13:29;;;;;;;7.95;4.40;;;;;;;12.08;47.52;101425.88;2105385;28;20298;-68
2022/05/01 04:14:34;;;;;;;6.13;3.92;;;;;;;12.07;47.57;101429.63;2105248;28;20294;-68
2022/05/01 04:15:41;;;;;;;8.85;4.78;;;;;;;12.02;47.85;101433.16;2088917;28;20057;-68
2022/05/01 04:16:44;;;;;;;7.05;4.70;;;;;;;12.03;47.67;101433.94;2089382;28;20052;-68
2022/05/01 04:17:46;;;;;;;8.43;4.50;;;;;;;12.09;47.76;101432.88;2090124;28;20037;-68
2022/05/01 04:18:50;;;;;;;12.60;5.00;;;;;;;12.10;47.70;101429.09;2080971;28;20462;-68
2022/05/01 04:20:01;;;;;;;9.77;4.70;;;;;;;12.13;47.96;101433.16;2082466;28;20292;-69
2022/05/01 04:21:10;;;;;;;8.70;4.15;;;;;;;12.13;47.67;101433.16;2092029;28;20707;-68
2022/05/01 04:22:12;;;;;;;11.77;5.28;;;;;;;12.13;48.13;101433.97;2089503;28;20052;-68
2022/05/01 04:23:14;;;;;;;11.35;4.30;;;;;;;12.11;47.93;101438.03;2080819;28;20046;-68
2022/05/01 04:24:19;;;;;;;8.75;4.45;;;;;;;12.09;47.99;101438.28;2097621;28;20287;-68
2022/05/01 04:25:29;;;;;;;7.40;4.13;;;;;;;12.04;47.91;101438.25;2113385;28;20047;-69
2022/05/01 04:26:32;;;;;;;9.35;4.50;;;;;;;12.10;48.18;101433.69;2114146;27;20281;-68
2022/05/01 04:27:36;;;;;;;12.30;4.65;;;;;;;12.10;47.85;101445.28;2113607;28;20610;-68
2022/05/01 04:28:38;;;;;;;9.45;4.88;;;;;;;12.14;47.66;101438.31;2105326;28;20293;-68
2022/05/01 04:29:44;;;;;;;12.70;4.70;;;;;;;12.14;47.84;101438.31;2098379;28;20056;-69
2022/05/01 04:30:50;;;;;;;12.93;5.13;;;;;;;12.13;48.06;101444.75;2105970;28;20373;-68
2022/05/01 04:31:52;;;;;;;12.40;4.40;;;;;;;12.13;47.91;101444.75;2096680;28;20064;-69
2022/05/01 04:32:53;;;;;;;10.43;4.30;;;;;;;12.16;47.89;101448.81;2088807;28;20448;-69
2022/05/01 04:33:56;;;;;;;9.88;3.90;;;;;;;12.15;48.21;101453.38;2096829;28;20056;-68
2022/05/01 04:34:58;;;;;;;7.82;3.88;;;;;;;12.14;48.48;101446.38;2113358;28;20292;-68
2022/05/01 04:36:04;;;;;;;10.02;3.97;;;;;;;12.16;48.30;101446.91;2112965;28;20058;-68
2022/05/01 04:37:06;;;;;;;7.07;3.45;;;;;;;12.17;48.15;101450.41;2106633;28;20294;-68
2022/05/01 04:38:11;;;;;;;6.20;3.40;;;;;;;12.11;47.86;101452.31;2105903;28;20040;-68
2022/05/01 04:39:21;;;;;;;9.18;3.83;;;;;;;12.09;48.03;101454.44;2105623;28;20070;-69
2022/05/01 04:40:23;;;;;;;6.70;3.55;;;;;;;12.08;48.00;101452.84;2105016;28;20051;-68
2022/05/01 04:41:30;;;;;;;7.05;2.97;;;;;;;12.06;47.86;101461.19;2104814;28;20040;-68
2022/05/01 04:42:36;;;;;;;5.43;2.83;;;;;;;12.04;47.35;101463.34;2105971;28;20696;-68
2022/05/01 04:43:41;;;;;;;4.57;2.75;;;;;;;12.07;47.39;101456.59;2105391;28;20036;-68
2022/05/01 04:44:43;;;;;;;5.00;2.90;;;;;;;12.04;47.67;101457.13;2104821;28;20542;-68
2022/05/01 04:46:09;;;;;;;6.45;2.90;;;;;;;12.05;47.49;101459.56;2096450;28;20052;-68
2022/05/01 04:47:13;;;;;;;5.15;2.70;;;;;;;12.05;47.27;101464.16;2095385;28;20293;-68
2022/05/01 04:48:19;;;;;;;6.22;2.60;;;;;;;12.01;46.97;101457.66;2088177;28;20053;-68
2022/05/01 04:49:22;;;;;;;5.35;2.65;;;;;;;11.99;47.31;101454.44;2090063;28;20271;-69
2022/05/01 04:50:26;;;;;;;4.15;2.80;;;;;;;11.96;47.09;101455.78;2112189;28;20043;-68
2022/05/01 04:51:30;;;;;;;3.63;2.50;;;;;;;11.92;47.04;101456.59;2113753;28;20048;-68
2022/05/01 04:52:37;;;;;;;6.53;2.20;;;;;;;11.98;47.20;101455.50;2096763;28;20464;-68
2022/05/01 04:53:44;;;;;;;8.60;2.30;;;;;;;12.08;47.41;101452.03;2090647;28;20393;-68
2022/05/01 04:54:51;;;;;;;4.47;2.30;;;;;;;12.10;47.41;101468.75;2105628;28;20711;-68
2022/05/01 04:55:54;;;;;;;4.60;2.30;;;;;;;12.03;47.41;101461.72;2105346;28;20330;-68
2022/05/01 04:57:09;;;;;;;5.72;2.55;;;;;;;12.01;47.56;101457.66;2098014;28;20044;-68
2022/05/01 04:58:17;;;;;;;4.18;2.10;;;;;;;12.00;47.60;101462.25;2106741;28;20060;-67
2022/05/01 04:59:24;;;;;;;5.82;2.40;;;;;;;11.95;48.01;101474.91;2112905;28;20415;-67
2022/05/01 05:00:29;;;;;;;5.38;2.47;;;;;;;11.95;48.20;101464.13;2096247;28;20515;-68
2022/05/01 05:01:35;;;;;;;3.90;2.30;;;;;;;11.97;48.27;101472.75;2104095;28;20050;-68
2022/05/01 05:02:39;;;;;;;5.32;2.40;;;;;;;11.88;48.15;101475.13;2111588;28;20054;-68
2022/05/01 05:03:41;;;;;;;6.13;2.60;;;;;;;11.88;47.80;101477.03;2104524;28;20044;-69
2022/05/01 05:04:49;;;;;;;6.63;2.67;;;;;;;11.86;47.75;101481.91;2104437;28;20067;-68
2022/05/01 05:05:51;;;;;;;7.40;2.75;;;;;;;11.83;47.66;101470.53;2096473;28;20040;-68
2022/05/01 05:06:54;;;;;;;7.43;3.00;;;;;;;11.78;47.88;101469.69;2095394;28;20116;-67
2022/05/01 05:10:53;;;;;;;5.80;3.08;;;;;;;11.74;49.56;101476.69;2111980;28;20288;-68
2022/05/01 05:12:03;;;;;;;4.32;2.35;;;;;;;11.75;50.14;101475.59;2103293;28;20052;-69
2022/05/01 05:13:07;;;;;;;5.82;3.08;;;;;;;11.78;50.21;101481.28;2096397;28;20392;-68
2022/05/01 05:14:13;;;;;;;5.55;2.78;;;;;;;11.78;50.97;101475.88;2087115;28;20527;-68
2022/05/01 05:15:20;;;;;;;7.05;2.88;;;;;;;11.78;50.86;101480.47;2090540;28;20290;-67
2022/05/01 05:16:25;;;;;;;8.45;3.15;;;;;;;11.77;50.96;101479.66;2101245;28;20625;-68
2022/05/01 05:17:33;;;;;;;8.10;3.08;;;;;;;11.73;51.65;101475.88;2089157;28;20301;-68
2022/05/01 05:18:36;;;;;;;5.38;2.70;;;;;;;11.74;52.02;101477.50;2092498;28;20287;-68
2022/05/01 05:19:41;;;;;;;6.28;2.80;;;;;;;11.65;51.44;101484.47;2108697;28;20054;-69
2022/05/01 05:20:44;;;;;;;5.40;3.03;;;;;;;11.66;52.07;101474.50;2105249;28;20384;-68
2022/05/01 05:21:49;;;;;;;9.55;3.50;;;;;;;11.69;52.21;101482.84;2106819;28;20754;-68